Time;durP1;ratioP1;P1;durP2;ratioP2;P2;SDS_P1;SDS_P2;PMS_P1;PMS_P2;Temp;Humidity;BMP_temperature;BMP_pressure;BME280_temperature;BME280_humidity;BME280_pressure;Samples;Min_cycle;Max_cycle;Signal;HPM_P1;HPM_P2
2021/06/22 00:00:26;;;;;;;6.20;3.40;;;13.60;99.90;;;;;;5117235;28;20040;-76
2021/06/22 00:02:52;;;;;;;8.48;3.83;;;13.50;99.90;;;;;;5103095;28;20495;-73
2021/06/22 00:05:18;;;;;;;9.70;4.00;;;13.40;99.90;;;;;;5103669;28;20050;-75
2021/06/22 00:07:50;;;;;;;9.13;4.30;;;13.40;99.90;;;;;;5102604;28;20017;-75
2021/06/22 00:10:18;;;;;;;17.73;5.35;;;13.40;99.90;;;;;;5098512;28;20045;-75
2021/06/22 00:12:44;;;;;;;8.48;3.40;;;13.40;99.90;;;;;;5089673;28;20028;-75
2021/06/22 00:15:13;;;;;;;8.60;3.38;;;13.40;99.90;;;;;;5100316;28;20107;-75
2021/06/22 00:17:39;;;;;;;5.97;2.97;;;13.40;99.90;;;;;;5098205;28;20088;-76
2021/06/22 00:20:06;;;;;;;13.07;3.63;;;13.40;99.90;;;;;;5094605;28;20028;-75
2021/06/22 00:22:32;;;;;;;11.73;3.90;;;13.40;99.90;;;;;;5092998;28;20102;-75
2021/06/22 00:24:58;;;;;;;7.82;4.47;;;13.40;99.90;;;;;;5097091;28;20305;-75
2021/06/22 00:27:24;;;;;;;7.53;3.78;;;13.30;99.90;;;;;;5094845;28;20027;-75
2021/06/22 00:29:50;;;;;;;6.15;3.00;;;13.30;99.90;;;;;;5096682;28;20027;-75
2021/06/22 00:32:17;;;;;;;6.70;3.70;;;13.20;99.90;;;;;;5095885;28;20016;-75
2021/06/22 00:34:44;;;;;;;10.73;4.60;;;13.20;99.90;;;;;;5099926;28;20012;-75
2021/06/22 00:37:14;;;;;;;18.60;5.43;;;13.20;99.90;;;;;;5099560;28;20119;-75
2021/06/22 00:39:39;;;;;;;9.90;4.70;;;13.20;99.90;;;;;;5095878;28;20391;-75
2021/06/22 00:42:05;;;;;;;8.57;3.28;;;13.20;99.90;;;;;;5089168;28;20098;-75
2021/06/22 00:44:31;;;;;;;12.00;3.97;;;13.20;99.90;;;;;;5096344;28;20115;-75
2021/06/22 00:46:56;;;;;;;8.90;3.17;;;13.20;99.90;;;;;;5088426;28;20379;-75
2021/06/22 00:49:22;;;;;;;9.35;3.67;;;13.20;99.90;;;;;;5100611;28;20020;-75
2021/06/22 00:51:48;;;;;;;7.45;3.60;;;13.10;99.90;;;;;;5101095;28;20055;-75
2021/06/22 00:54:14;;;;;;;14.05;4.88;;;13.20;99.90;;;;;;5096131;28;20066;-75
2021/06/22 00:56:39;;;;;;;7.68;3.72;;;13.20;99.90;;;;;;5097323;28;20023;-75
2021/06/22 00:59:05;;;;;;;15.38;5.25;;;13.20;99.90;;;;;;5095755;28;20077;-75
2021/06/22 01:01:31;;;;;;;11.35;3.70;;;13.10;99.90;;;;;;5090303;28;20494;-75
2021/06/22 01:03:56;;;;;;;5.90;3.08;;;13.10;99.90;;;;;;5096630;28;20058;-75
2021/06/22 01:06:22;;;;;;;17.83;3.90;;;13.10;99.90;;;;;;5094886;28;20384;-75
2021/06/22 01:08:51;;;;;;;9.32;3.50;;;13.10;99.90;;;;;;5087065;28;20020;-75
2021/06/22 01:11:17;;;;;;;19.38;4.90;;;13.10;99.90;;;;;;5093559;28;20484;-75
2021/06/22 01:13:43;;;;;;;11.25;4.22;;;13.10;99.90;;;;;;5094945;28;20034;-75
2021/06/22 01:16:20;;;;;;;7.63;3.22;;;13.10;99.90;;;;;;5088690;28;20035;-75
2021/06/22 01:18:46;;;;;;;9.73;3.55;;;13.10;99.90;;;;;;5095533;28;20024;-75
2021/06/22 01:21:15;;;;;;;9.73;3.55;;;13.10;99.90;;;;;;5090980;28;20317;-75
2021/06/22 01:23:41;;;;;;;8.93;3.53;;;13.20;99.90;;;;;;5099871;28;20070;-75
2021/06/22 01:26:06;;;;;;;14.35;3.92;;;13.20;99.90;;;;;;5092903;28;20053;-75
2021/06/22 01:28:32;;;;;;;12.45;3.53;;;13.20;99.90;;;;;;5090398;28;20108;-74
2021/06/22 01:30:58;;;;;;;7.78;3.70;;;13.10;99.90;;;;;;5093656;28;20020;-74
2021/06/22 01:33:24;;;;;;;11.48;4.72;;;13.10;99.90;;;;;;5094784;28;20028;-75
2021/06/22 01:35:50;;;;;;;8.80;3.72;;;13.10;99.90;;;;;;5090855;28;20058;-75
2021/06/22 01:38:15;;;;;;;8.05;4.22;;;13.20;99.90;;;;;;5081786;28;20079;-74
2021/06/22 01:40:50;;;;;;;5.63;3.45;;;13.20;99.90;;;;;;5092064;28;20119;-74
2021/06/22 01:43:15;;;;;;;12.07;3.55;;;13.10;99.90;;;;;;5094445;28;20470;-74
2021/06/22 01:45:41;;;;;;;10.07;3.22;;;13.10;99.90;;;;;;5093023;28;20020;-74
2021/06/22 01:48:07;;;;;;;8.00;3.30;;;13.10;99.90;;;;;;5093504;28;20127;-74
2021/06/22 01:50:33;;;;;;;8.75;3.72;;;13.20;99.90;;;;;;5093202;28;20047;-75
2021/06/22 01:52:58;;;;;;;9.77;5.25;;;13.10;99.90;;;;;;5094688;28;20454;-74
2021/06/22 01:55:37;;;;;;;7.43;3.60;;;13.20;99.90;;;;;;5092763;28;20031;-74
2021/06/22 01:58:11;;;;;;;8.63;3.33;;;13.30;99.90;;;;;;5098314;28;21786;-74
2021/06/22 02:00:39;;;;;;;10.82;3.45;;;13.20;99.90;;;;;;5088711;28;20369;-74
2021/06/22 02:03:06;;;;;;;4.38;2.80;;;13.30;99.90;;;;;;5094288;28;20468;-75
2021/06/22 02:05:31;;;;;;;7.60;4.40;;;13.30;99.90;;;;;;5094175;28;20472;-74
2021/06/22 02:07:57;;;;;;;12.75;3.75;;;13.30;99.90;;;;;;5094451;28;20028;-74
2021/06/22 02:10:22;;;;;;;8.73;3.38;;;13.30;99.90;;;;;;5091576;28;20043;-74
2021/06/22 02:12:48;;;;;;;14.18;3.80;;;13.30;99.90;;;;;;5089764;28;20422;-75
2021/06/22 02:15:15;;;;;;;16.00;3.42;;;13.20;99.90;;;;;;5092316;28;20059;-74
2021/06/22 02:17:41;;;;;;;5.55;3.15;;;13.20;99.90;;;;;;5092820;28;20024;-74
2021/06/22 02:20:08;;;;;;;8.27;3.95;;;13.20;99.90;;;;;;5101113;28;20040;-75
2021/06/22 02:22:34;;;;;;;7.85;3.80;;;13.20;99.90;;;;;;5094101;28;20024;-74
2021/06/22 02:25:00;;;;;;;5.85;3.47;;;13.20;99.90;;;;;;5092051;28;20024;-74
2021/06/22 02:27:28;;;;;;;19.08;3.83;;;13.20;99.90;;;;;;5094858;28;20473;-75
2021/06/22 02:29:54;;;;;;;;;;;13.20;99.90;;;;;;5094076;28;20368;-75
2021/06/22 02:32:20;;;;;;;6.95;3.47;;;13.20;99.90;;;;;;5095679;28;19908;-75
2021/06/22 02:34:45;;;;;;;5.30;3.25;;;13.20;99.90;;;;;;5093376;28;20388;-75
2021/06/22 02:37:11;;;;;;;14.63;3.60;;;13.20;99.90;;;;;;5094144;28;20036;-75
2021/06/22 02:39:36;;;;;;;9.48;4.00;;;13.20;99.90;;;;;;5093114;28;20533;-75
2021/06/22 02:42:02;;;;;;;9.63;3.95;;;13.20;99.90;;;;;;5083272;28;20028;-75
2021/06/22 02:44:28;;;;;;;6.95;3.50;;;13.10;99.90;;;;;;5091842;28;20024;-75
2021/06/22 02:46:53;;;;;;;8.77;3.45;;;13.10;99.90;;;;;;5093744;28;20436;-75
2021/06/22 02:49:19;;;;;;;9.43;3.90;;;13.10;99.90;;;;;;5084870;28;20030;-74
2021/06/22 02:51:45;;;;;;;5.82;3.63;;;13.10;99.90;;;;;;5091451;28;20389;-74
2021/06/22 02:54:10;;;;;;;11.43;4.55;;;13.00;99.90;;;;;;5091151;28;20045;-74
2021/06/22 02:56:36;;;;;;;8.68;3.97;;;13.10;99.90;;;;;;5095691;28;20024;-74
2021/06/22 02:59:02;;;;;;;12.82;5.57;;;13.10;99.90;;;;;;5089678;28;20047;-75
2021/06/22 03:01:27;;;;;;;8.30;4.15;;;13.10;99.90;;;;;;5091759;28;20058;-74
2021/06/22 03:03:53;;;;;;;7.05;3.78;;;13.20;99.90;;;;;;5090115;28;20032;-75
2021/06/22 03:06:19;;;;;;;8.50;3.97;;;13.20;99.90;;;;;;5090916;28;20040;-75
2021/06/22 03:08:45;;;;;;;8.07;3.88;;;13.20;99.90;;;;;;5093041;28;20099;-74
2021/06/22 03:11:10;;;;;;;7.95;3.85;;;13.30;99.90;;;;;;5091978;28;20495;-74
2021/06/22 03:13:36;;;;;;;12.82;4.18;;;13.20;99.90;;;;;;5092840;28;20107;-75
2021/06/22 03:16:01;;;;;;;10.27;4.20;;;13.20;99.90;;;;;;5081795;28;20123;-74
2021/06/22 03:18:27;;;;;;;9.68;3.70;;;13.20;99.90;;;;;;5094145;28;20063;-75
2021/06/22 03:20:53;;;;;;;9.75;4.95;;;13.20;99.90;;;;;;5092265;28;20032;-75
2021/06/22 03:23:18;;;;;;;7.43;3.53;;;13.30;99.90;;;;;;5094460;28;20403;-75
2021/06/22 03:25:44;;;;;;;6.85;3.40;;;13.30;99.90;;;;;;5087757;28;20020;-75
2021/06/22 03:28:09;;;;;;;13.90;4.18;;;13.30;99.90;;;;;;5087684;28;20069;-75
2021/06/22 03:30:35;;;;;;;8.48;3.53;;;13.30;99.90;;;;;;5095603;28;20051;-75
2021/06/22 03:33:00;;;;;;;12.07;3.30;;;13.40;99.90;;;;;;5095361;28;20070;-74
2021/06/22 03:35:28;;;;;;;8.70;3.42;;;13.40;99.90;;;;;;5092068;28;20024;-75
2021/06/22 03:37:54;;;;;;;5.65;3.58;;;13.40;99.90;;;;;;5094869;28;20128;-75
2021/06/22 03:40:21;;;;;;;9.65;3.58;;;13.30;99.90;;;;;;5097222;28;20495;-76
2021/06/22 03:42:47;;;;;;;7.30;3.03;;;13.40;99.90;;;;;;5098297;28;20388;-76
2021/06/22 03:45:14;;;;;;;12.90;3.15;;;13.40;99.90;;;;;;5098865;28;20104;-76
2021/06/22 03:47:40;;;;;;;10.10;3.35;;;13.40;99.90;;;;;;5098340;28;20031;-75
2021/06/22 03:50:06;;;;;;;12.75;3.30;;;13.40;99.90;;;;;;5098747;28;20024;-75
2021/06/22 03:52:32;;;;;;;6.13;3.45;;;13.40;99.90;;;;;;5096954;28;20043;-76
2021/06/22 03:54:58;;;;;;;5.57;2.83;;;13.50;99.90;;;;;;5091992;28;20020;-76
2021/06/22 03:57:24;;;;;;;16.15;3.53;;;13.50;99.90;;;;;;5094466;28;20043;-75
2021/06/22 03:59:50;;;;;;;11.45;3.47;;;13.50;99.90;;;;;;5094676;28;20030;-75
2021/06/22 04:02:17;;;;;;;11.02;3.35;;;13.50;99.90;;;;;;5091862;28;20040;-75
2021/06/22 04:04:42;;;;;;;9.55;3.60;;;13.50;99.90;;;;;;5092957;28;20024;-75
2021/06/22 04:07:08;;;;;;;22.08;4.90;;;13.40;99.90;;;;;;5093508;28;20036;-75
2021/06/22 04:09:33;;;;;;;9.50;3.50;;;13.40;99.90;;;;;;5093829;28;20077;-75
2021/06/22 04:11:59;;;;;;;17.90;4.30;;;13.40;99.90;;;;;;5092230;28;20464;-74
2021/06/22 04:14:25;;;;;;;9.63;3.72;;;13.40;99.90;;;;;;5092401;28;20099;-75
2021/06/22 04:16:51;;;;;;;9.55;4.63;;;13.50;99.90;;;;;;5091180;28;20413;-75
2021/06/22 04:19:16;;;;;;;13.82;4.28;;;13.50;99.90;;;;;;5091694;28;20035;-74
2021/06/22 04:21:42;;;;;;;11.07;5.22;;;13.50;99.90;;;;;;5079524;28;20036;-74
2021/06/22 04:24:08;;;;;;;14.48;5.07;;;13.60;99.90;;;;;;5091324;28;20020;-74
2021/06/22 04:26:33;;;;;;;12.98;6.32;;;13.60;99.90;;;;;;5091821;28;20540;-75
2021/06/22 04:28:59;;;;;;;9.90;5.38;;;13.50;99.90;;;;;;5093766;28;20043;-74
2021/06/22 04:31:25;;;;;;;12.23;5.35;;;13.60;99.90;;;;;;5085292;28;20039;-74
2021/06/22 04:33:50;;;;;;;12.43;6.70;;;13.50;99.90;;;;;;5091276;28;20020;-74
2021/06/22 04:36:16;;;;;;;10.35;6.28;;;13.60;99.90;;;;;;5091510;28;20032;-74
2021/06/22 04:38:47;;;;;;;15.15;6.97;;;13.70;99.90;;;;;;5096055;28;20054;-75
2021/06/22 04:41:16;;;;;;;14.07;7.38;;;13.70;99.90;;;;;;5088629;28;20031;-74
2021/06/22 04:43:42;;;;;;;16.77;8.00;;;13.70;99.90;;;;;;5077040;28;20020;-74
2021/06/22 04:46:07;;;;;;;14.15;7.20;;;13.80;99.90;;;;;;5080260;28;21749;-75
2021/06/22 04:48:33;;;;;;;10.30;7.28;;;13.80;99.90;;;;;;5086564;28;20061;-74
2021/06/22 04:50:58;;;;;;;17.35;8.05;;;13.90;99.90;;;;;;5088739;28;20035;-74
2021/06/22 04:53:26;;;;;;;16.17;8.57;;;14.00;99.90;;;;;;5079995;28;20037;-74
2021/06/22 04:55:52;;;;;;;17.50;8.65;;;13.90;99.90;;;;;;5091930;28;20025;-74
2021/06/22 04:58:18;;;;;;;17.70;7.63;;;13.90;99.90;;;;;;5091007;28;20430;-74
2021/06/22 05:00:43;;;;;;;17.98;7.93;;;13.90;99.90;;;;;;5087357;28;20024;-74
2021/06/22 05:03:09;;;;;;;18.38;9.55;;;13.90;99.90;;;;;;5094685;28;20061;-74
2021/06/22 05:05:35;;;;;;;18.67;7.70;;;13.80;99.90;;;;;;5094192;28;20093;-74
2021/06/22 05:08:00;;;;;;;15.50;8.10;;;13.90;99.90;;;;;;5092474;28;20603;-75
2021/06/22 05:10:26;;;;;;;22.70;9.77;;;13.90;99.90;;;;;;5091963;28;20048;-74
2021/06/22 05:12:52;;;;;;;18.25;8.73;;;13.90;99.90;;;;;;5075763;28;20388;-74
2021/06/22 05:15:18;;;;;;;26.52;8.88;;;13.90;99.90;;;;;;5081478;28;20027;-74
2021/06/22 05:17:44;;;;;;;15.85;9.02;;;14.00;99.90;;;;;;5094537;28;20020;-74
2021/06/22 05:20:09;;;;;;;20.77;8.68;;;14.10;99.90;;;;;;5096691;28;20043;-74
2021/06/22 05:22:35;;;;;;;18.35;8.73;;;14.20;99.90;;;;;;5101618;28;20035;-74
2021/06/22 05:25:03;;;;;;;20.42;8.10;;;14.20;99.90;;;;;;5096563;28;20100;-74
2021/06/22 05:27:28;;;;;;;18.60;9.57;;;14.30;99.90;;;;;;5099873;28;20036;-74
2021/06/22 05:29:54;;;;;;;16.02;8.80;;;14.50;99.90;;;;;;5097930;28;20039;-75
2021/06/22 05:32:19;;;;;;;15.68;8.60;;;14.50;99.90;;;;;;5095615;28;20056;-74
2021/06/22 05:34:45;;;;;;;16.42;8.40;;;14.50;99.90;;;;;;5095576;28;20032;-74
2021/06/22 05:37:11;;;;;;;17.58;9.40;;;14.40;99.90;;;;;;5095313;28;20026;-74
2021/06/22 05:39:36;;;;;;;18.50;9.18;;;14.30;99.90;;;;;;5097867;28;20024;-74
2021/06/22 05:42:02;;;;;;;18.67;8.75;;;14.30;99.90;;;;;;5096229;28;20510;-74
2021/06/22 05:44:28;;;;;;;25.45;9.85;;;14.30;99.90;;;;;;5084656;28;20032;-75
2021/06/22 05:46:54;;;;;;;21.00;8.80;;;14.30;99.90;;;;;;5094402;28;20357;-74
2021/06/22 05:49:19;;;;;;;19.95;9.30;;;14.30;99.90;;;;;;5097971;28;20016;-74
2021/06/22 05:51:45;;;;;;;15.10;8.73;;;14.30;99.90;;;;;;5083846;28;20029;-74
2021/06/22 05:54:11;;;;;;;18.20;9.85;;;14.40;99.90;;;;;;5093468;28;20024;-74
2021/06/22 05:56:37;;;;;;;18.83;9.57;;;14.40;99.90;;;;;;5096184;28;20036;-75
2021/06/22 05:59:03;;;;;;;22.77;9.00;;;14.30;99.90;;;;;;5098635;28;20023;-74
2021/06/22 06:01:28;;;;;;;16.85;9.48;;;14.40;99.90;;;;;;5099364;28;20036;-74
2021/06/22 06:03:54;;;;;;;25.38;10.13;;;14.40;99.90;;;;;;5100467;28;20115;-74
2021/06/22 06:06:19;;;;;;;19.70;9.13;;;14.40;99.90;;;;;;5110520;28;20043;-74
2021/06/22 06:08:46;;;;;;;17.27;9.73;;;14.40;99.90;;;;;;5102244;28;20054;-74
2021/06/22 06:11:12;;;;;;;18.27;10.02;;;14.40;99.90;;;;;;5091182;28;20012;-74
2021/06/22 06:13:37;;;;;;;25.25;10.27;;;14.40;99.90;;;;;;5095027;28;20437;-74
2021/06/22 06:16:05;;;;;;;16.67;8.55;;;15.40;99.90;;;;;;5088045;28;20028;-74
2021/06/22 06:18:31;;;;;;;17.80;8.20;;;17.30;99.90;;;;;;5089060;28;20032;-73
2021/06/22 06:20:58;;;;;;;12.45;6.82;;;19.40;99.90;;;;;;5092790;28;20062;-73
2021/06/22 06:23:27;;;;;;;13.65;5.85;;;20.50;99.90;;;;;;5094365;28;20053;-75
2021/06/22 06:28:43;;;;;;;24.35;8.20;;;21.50;99.90;;;;;;5092804;28;20043;-75
2021/06/22 06:31:09;;;;;;;14.10;8.55;;;21.00;99.90;;;;;;5087277;28;20434;-74
2021/06/22 06:33:34;;;;;;;20.92;8.38;;;20.40;99.90;;;;;;5093571;28;20027;-74
2021/06/22 06:36:00;;;;;;;12.57;7.78;;;20.30;99.90;;;;;;5092801;28;20037;-75
2021/06/22 06:38:25;;;;;;;18.10;7.18;;;20.70;99.90;;;;;;5090475;28;20397;-74
2021/06/22 06:40:51;;;;;;;13.90;8.35;;;21.00;99.90;;;;;;5093517;28;20069;-74
2021/06/22 06:43:17;;;;;;;21.30;8.13;;;20.90;99.90;;;;;;5094437;28;20400;-75
2021/06/22 06:45:42;;;;;;;15.57;8.68;;;20.30;99.90;;;;;;5093188;28;20464;-74
2021/06/22 06:48:09;;;;;;;18.63;8.57;;;19.80;99.90;;;;;;5108620;28;20035;-74
2021/06/22 06:50:34;;;;;;;19.88;9.07;;;19.10;99.90;;;;;;5078000;28;20039;-74
2021/06/22 06:53:00;;;;;;;21.50;9.50;;;18.50;99.90;;;;;;5086429;28;20103;-74
2021/06/22 06:55:26;;;;;;;16.45;9.65;;;18.00;99.90;;;;;;5085349;28;20032;-74
2021/06/22 06:58:04;;;;;;;13.75;8.32;;;17.60;99.90;;;;;;5089660;28;20024;-74
2021/06/22 07:00:31;;;;;;;20.33;9.02;;;17.90;99.90;;;;;;5081789;28;20112;-74
2021/06/22 07:02:58;;;;;;;18.05;9.32;;;17.80;99.90;;;;;;5088443;28;20479;-74
2021/06/22 07:05:24;;;;;;;12.38;8.65;;;17.30;99.90;;;;;;5090499;28;20132;-74
2021/06/22 07:07:51;;;;;;;23.52;9.35;;;16.90;99.90;;;;;;5087171;28;20032;-74
2021/06/22 07:10:16;;;;;;;22.15;9.77;;;16.50;99.90;;;;;;5083529;28;20040;-74
2021/06/22 07:12:43;;;;;;;19.23;9.98;;;16.30;99.90;;;;;;5089521;28;20124;-75
2021/06/22 07:15:10;;;;;;;17.63;9.48;;;16.20;99.90;;;;;;5085513;28;20024;-74
2021/06/22 07:17:35;;;;;;;16.73;8.77;;;16.20;99.90;;;;;;5085607;28;20036;-74
2021/06/22 07:20:05;;;;;;;16.17;10.05;;;16.10;99.90;;;;;;5086937;28;20141;-75
2021/06/22 07:22:31;;;;;;;15.32;8.73;;;16.10;99.90;;;;;;5085238;28;20082;-75
2021/06/22 07:24:57;;;;;;;20.23;10.48;;;16.30;99.90;;;;;;5089465;28;20448;-75
2021/06/22 07:27:22;;;;;;;19.60;9.65;;;16.40;99.90;;;;;;5096203;28;20035;-74
2021/06/22 07:29:48;;;;;;;23.70;10.40;;;16.30;99.90;;;;;;5090114;28;20024;-75
2021/06/22 07:32:14;;;;;;;16.27;9.65;;;16.10;99.90;;;;;;5087258;28;20133;-75
2021/06/22 07:34:39;;;;;;;21.27;9.90;;;16.10;99.90;;;;;;5084577;28;20088;-76
2021/06/22 07:37:05;;;;;;;20.38;9.85;;;16.10;99.90;;;;;;5089684;28;20553;-74
2021/06/22 07:39:30;;;;;;;23.85;9.80;;;16.10;99.90;;;;;;5091586;28;20028;-74
2021/06/22 07:41:56;;;;;;;28.88;11.32;;;16.10;99.90;;;;;;5091078;28;20063;-75
2021/06/22 07:44:22;;;;;;;26.42;10.23;;;16.00;99.90;;;;;;5102640;28;20080;-75
2021/06/22 07:46:48;;;;;;;18.20;9.68;;;16.00;99.90;;;;;;5116316;28;20035;-80
2021/06/22 07:49:13;;;;;;;23.00;9.90;;;16.10;99.90;;;;;;5078001;28;20020;-73
2021/06/22 07:51:39;;;;;;;15.93;9.23;;;16.00;99.90;;;;;;5073272;28;20027;-75
2021/06/22 07:54:05;;;;;;;19.55;10.82;;;16.00;99.90;;;;;;5073180;28;20027;-75
2021/06/22 07:56:30;;;;;;;14.90;8.98;;;16.10;99.90;;;;;;5074242;28;20380;-74
2021/06/22 07:58:56;;;;;;;15.88;8.75;;;16.10;99.90;;;;;;5071995;28;20032;-77
2021/06/22 08:01:22;;;;;;;14.82;8.43;;;16.10;99.90;;;;;;5072932;28;20040;-74
2021/06/22 08:03:47;;;;;;;14.82;8.32;;;16.20;99.90;;;;;;5071694;28;20017;-74
2021/06/22 08:06:13;;;;;;;18.60;9.18;;;16.30;99.90;;;;;;5085920;28;20013;-75
2021/06/22 08:08:39;;;;;;;21.00;8.90;;;16.50;99.90;;;;;;5072037;28;20116;-76
2021/06/22 08:11:04;;;;;;;17.58;7.10;;;16.60;99.90;;;;;;5074031;28;20493;-77
2021/06/22 08:13:31;;;;;;;10.00;5.45;;;17.00;99.90;;;;;;5076093;28;20013;-77
2021/06/22 08:15:58;;;;;;;10.68;6.20;;;17.10;99.90;;;;;;5085294;28;20107;-78
2021/06/22 08:18:24;;;;;;;14.88;6.50;;;17.20;99.90;;;;;;5081997;28;20033;-75
2021/06/22 08:20:51;;;;;;;12.85;5.10;;;17.40;99.90;;;;;;5075587;28;20170;-78
2021/06/22 08:23:17;;;;;;;10.80;5.38;;;17.70;99.90;;;;;;5095240;28;20024;-74
2021/06/22 08:25:43;;;;;;;11.10;4.90;;;18.20;99.90;;;;;;5095378;28;20040;-75
2021/06/22 08:28:10;;;;;;;17.58;6.47;;;18.40;99.90;;;;;;5096506;28;20439;-74
2021/06/22 08:30:36;;;;;;;11.65;4.47;;;18.70;99.90;;;;;;5095843;28;20032;-75
2021/06/22 08:33:03;;;;;;;11.73;6.20;;;18.90;99.90;;;;;;5097230;28;20544;-75
2021/06/22 08:35:31;;;;;;;14.15;5.72;;;18.60;99.90;;;;;;5097386;28;20020;-75
2021/06/22 08:37:58;;;;;;;7.95;5.28;;;18.30;99.90;;;;;;5089741;28;20044;-74
2021/06/22 08:40:23;;;;;;;13.65;5.40;;;18.30;99.90;;;;;;5091119;28;20039;-75
2021/06/22 08:42:49;;;;;;;10.25;4.95;;;18.20;99.90;;;;;;5096141;28;20032;-75
2021/06/22 08:45:17;;;;;;;7.60;5.00;;;18.30;99.90;;;;;;5077959;28;20025;-75
2021/06/22 08:47:44;;;;;;;5.88;4.25;;;18.50;99.90;;;;;;5077660;28;20059;-74
2021/06/22 08:50:12;;;;;;;12.93;5.20;;;18.30;99.90;;;;;;5077298;28;20031;-76
2021/06/22 08:52:38;;;;;;;6.38;4.53;;;18.30;99.90;;;;;;5092052;28;20032;-76
2021/06/22 08:55:07;;;;;;;8.27;4.45;;;17.90;99.90;;;;;;5075274;28;20032;-75
2021/06/22 08:57:34;;;;;;;10.68;4.45;;;17.80;99.90;;;;;;5081489;28;20021;-76
2021/06/22 09:00:00;;;;;;;9.77;4.40;;;17.90;99.90;;;;;;5096460;28;20030;-75
2021/06/22 09:02:26;;;;;;;6.10;4.10;;;17.90;99.90;;;;;;5096310;28;20266;-75
2021/06/22 09:04:56;;;;;;;7.68;3.92;;;18.20;99.90;;;;;;5095050;28;20012;-76
2021/06/22 09:07:42;;;;;;;10.45;3.60;;;19.00;99.90;;;;;;5094860;28;20416;-75
2021/06/22 09:10:08;;;;;;;10.27;4.32;;;19.30;99.90;;;;;;5095877;28;20067;-76
2021/06/22 09:12:35;;;;;;;8.90;4.25;;;18.90;99.90;;;;;;5095227;28;20090;-76
2021/06/22 09:15:00;;;;;;;11.23;3.78;;;18.50;99.90;;;;;;5087425;28;20020;-77
2021/06/22 09:17:35;;;;;;;12.38;4.55;;;18.30;99.90;;;;;;5095896;28;20115;-75
2021/06/22 09:20:01;;;;;;;6.50;4.28;;;18.60;99.90;;;;;;5096309;28;20024;-75
2021/06/22 09:22:28;;;;;;;16.65;4.85;;;19.00;99.90;;;;;;5095751;28;20028;-76
2021/06/22 09:25:20;;;;;;;9.65;3.63;;;19.10;99.90;;;;;;5093862;28;20028;-75
2021/06/22 09:27:53;;;;;;;8.80;3.65;;;19.20;99.90;;;;;;5090926;28;20040;-76
2021/06/22 09:30:43;;;;;;;9.02;3.63;;;19.60;99.90;;;;;;5096108;28;20028;-75
2021/06/22 09:33:19;;;;;;;5.45;4.05;;;19.60;99.90;;;;;;5092303;28;20487;-75
2021/06/22 09:35:45;;;;;;;9.90;3.67;;;19.50;99.90;;;;;;5094856;28;20012;-76
2021/06/22 09:38:12;;;;;;;6.13;3.83;;;19.40;99.90;;;;;;5094572;28;20069;-76
2021/06/22 09:40:38;;;;;;;11.40;3.78;;;19.30;99.90;;;;;;5093767;28;20067;-82
2021/06/22 09:43:03;;;;;;;11.02;3.95;;;19.30;99.90;;;;;;5095375;28;20024;-81
2021/06/22 09:45:30;;;;;;;8.60;3.65;;;19.50;99.90;;;;;;5081471;28;20036;-79
2021/06/22 09:48:00;;;;;;;9.63;3.60;;;19.20;99.90;;;;;;5103614;28;20119;-80
2021/06/22 09:50:34;;;;;;;6.22;3.17;;;19.20;99.90;;;;;;5094550;28;20391;-78
2021/06/22 09:53:25;;;;;;;9.48;3.63;;;19.30;99.90;;;;;;5093720;28;20527;-84
2021/06/22 09:55:51;;;;;;;7.10;3.28;;;19.30;99.90;;;;;;5096069;28;20020;-81
2021/06/22 09:58:51;;;;;;;11.52;3.45;;;19.30;99.90;;;;;;5094450;28;20032;-82
2021/06/22 10:01:26;;;;;;;6.60;2.97;;;18.90;99.90;;;;;;5093331;28;20040;-82
2021/06/22 10:03:53;;;;;;;10.40;4.18;;;18.70;99.90;;;;;;5094569;28;20024;-81
2021/06/22 10:06:19;;;;;;;10.95;3.03;;;18.60;99.90;;;;;;5083655;28;20024;-83
2021/06/22 10:08:57;;;;;;;7.75;3.67;;;18.70;99.90;;;;;;5093367;28;20068;-82
2021/06/22 10:11:39;;;;;;;12.20;3.40;;;19.40;99.90;;;;;;5093571;28;20048;-82
2021/06/22 10:14:11;;;;;;;5.25;3.40;;;19.70;99.90;;;;;;5094195;28;20031;-82
2021/06/22 10:16:37;;;;;;;7.88;3.35;;;19.60;99.90;;;;;;5092772;28;20039;-83
2021/06/22 10:19:05;;;;;;;8.57;3.78;;;19.30;99.90;;;;;;5094412;28;20032;-83
2021/06/22 10:21:33;;;;;;;9.32;3.00;;;19.50;99.70;;;;;;5097701;28;20531;-81
2021/06/22 10:24:00;;;;;;;6.80;2.70;;;20.00;99.80;;;;;;5097338;28;20136;-84
2021/06/22 10:26:29;;;;;;;13.50;3.10;;;20.40;98.50;;;;;;5097640;28;20055;-82
2021/06/22 10:28:59;;;;;;;6.20;2.83;;;20.50;98.30;;;;;;5093115;28;20088;-83
2021/06/22 10:31:26;;;;;;;5.70;2.90;;;20.20;98.20;;;;;;5094341;28;20111;-83
2021/06/22 10:33:52;;;;;;;4.00;2.80;;;20.10;98.90;;;;;;5093495;28;20019;-83
2021/06/22 10:36:31;;;;;;;9.48;3.10;;;20.10;98.20;;;;;;5091825;28;20476;-77
2021/06/22 10:39:05;;;;;;;7.10;3.17;;;20.30;98.00;;;;;;5095072;28;20035;-78
2021/06/22 10:41:41;;;;;;;5.75;2.63;;;20.30;98.70;;;;;;5091172;28;20433;-79
2021/06/22 10:44:23;;;;;;;8.18;3.58;;;20.00;98.80;;;;;;5092050;28;20143;-76
2021/06/22 10:47:21;;;;;;;7.05;3.70;;;19.50;99.90;;;;;;5087855;28;20490;-76
2021/06/22 10:50:06;;;;;;;7.18;3.60;;;19.30;99.90;;;;;;5091365;28;20028;-78
2021/06/22 10:52:45;;;;;;;8.32;3.30;;;19.00;99.90;;;;;;5095038;28;20469;-78
2021/06/22 10:55:21;;;;;;;13.55;4.95;;;18.90;99.90;;;;;;5089310;28;20045;-75
2021/06/22 10:57:56;;;;;;;5.25;2.80;;;18.90;99.90;;;;;;5089913;28;20067;-77
2021/06/22 11:00:43;;;;;;;11.15;3.75;;;18.90;99.90;;;;;;5087752;28;20024;-76
2021/06/22 11:03:28;;;;;;;4.93;3.13;;;18.90;99.90;;;;;;5079121;28;20040;-77
2021/06/22 11:06:12;;;;;;;8.93;3.60;;;19.00;99.90;;;;;;5089217;28;20119;-75
2021/06/22 11:08:43;;;;;;;10.20;3.40;;;19.10;99.90;;;;;;5092909;28;20028;-77
2021/06/22 11:11:09;;;;;;;8.50;3.88;;;18.90;99.90;;;;;;5087206;28;20047;-76
2021/06/22 11:13:42;;;;;;;10.55;3.88;;;18.90;99.90;;;;;;5091518;28;20115;-83
2021/06/22 11:16:21;;;;;;;6.45;3.25;;;18.80;99.90;;;;;;5087425;28;20073;-84
2021/06/22 11:18:55;;;;;;;12.55;3.58;;;19.00;99.90;;;;;;5093091;28;20036;-84
2021/06/22 11:21:31;;;;;;;4.88;3.00;;;19.20;99.90;;;;;;5091316;28;20020;-77
2021/06/22 11:24:07;;;;;;;9.25;3.85;;;19.60;99.90;;;;;;5090942;28;20032;-83
2021/06/22 11:26:45;;;;;;;5.70;3.30;;;20.20;99.90;;;;;;5086386;28;20036;-74
2021/06/22 11:29:17;;;;;;;10.45;3.10;;;20.30;99.90;;;;;;5087929;28;20057;-73
2021/06/22 11:31:52;;;;;;;9.48;3.22;;;19.90;99.40;;;;;;5092038;28;20024;-74
2021/06/22 11:34:23;;;;;;;8.05;3.25;;;19.60;99.90;;;;;;5087840;28;20049;-74
2021/06/22 11:36:54;;;;;;;6.45;3.05;;;19.20;99.90;;;;;;5087562;28;20046;-73
2021/06/22 11:39:30;;;;;;;12.25;3.40;;;18.90;99.90;;;;;;5091560;28;20491;-78
2021/06/22 11:42:11;;;;;;;12.02;3.45;;;18.70;99.90;;;;;;5089506;28;20043;-73
2021/06/22 11:44:38;;;;;;;16.70;4.07;;;18.50;99.90;;;;;;5085652;28;20036;-74
2021/06/22 11:47:05;;;;;;;9.77;3.17;;;18.10;99.90;;;;;;5092866;28;20032;-74
2021/06/22 11:49:47;;;;;;;10.65;3.72;;;18.00;99.90;;;;;;5095354;28;20145;-74
2021/06/22 11:52:15;;;;;;;7.05;3.67;;;17.90;99.90;;;;;;5097439;28;20527;-77
2021/06/22 11:54:47;;;;;;;14.48;3.63;;;17.80;99.90;;;;;;5086201;28;20111;-76
2021/06/22 11:57:31;;;;;;;10.70;3.78;;;17.70;99.90;;;;;;5110535;28;20032;-75
2021/06/22 12:00:06;;;;;;;9.63;3.63;;;17.70;99.90;;;;;;5094673;28;20468;-75
2021/06/22 12:02:32;;;;;;;12.73;3.63;;;17.90;99.90;;;;;;5104916;28;20031;-75
2021/06/22 12:04:57;;;;;;;7.93;3.70;;;17.90;99.90;;;;;;5099488;28;20028;-75
2021/06/22 12:07:23;;;;;;;12.40;3.85;;;17.90;99.90;;;;;;5100909;28;20040;-75
2021/06/22 12:09:49;;;;;;;12.75;3.90;;;18.00;99.90;;;;;;5098634;28;20127;-75
2021/06/22 12:12:15;;;;;;;12.70;4.53;;;18.10;99.90;;;;;;5103454;28;20073;-75
2021/06/22 12:14:46;;;;;;;10.07;4.30;;;18.20;99.90;;;;;;5096747;28;20035;-75
2021/06/22 12:17:16;;;;;;;10.88;4.65;;;18.40;99.90;;;;;;5096662;28;20396;-75
2021/06/22 12:19:43;;;;;;;14.63;4.97;;;18.40;99.90;;;;;;5097710;28;20024;-75
2021/06/22 12:22:11;;;;;;;13.73;4.00;;;18.40;99.90;;;;;;5091202;28;20107;-76
2021/06/22 12:24:39;;;;;;;6.18;3.38;;;18.10;99.90;;;;;;5096736;28;20388;-75
2021/06/22 12:27:05;;;;;;;12.20;4.65;;;18.00;99.90;;;;;;5096497;28;20078;-74
2021/06/22 12:29:32;;;;;;;13.20;3.85;;;17.90;99.90;;;;;;5095377;28;20024;-75
2021/06/22 12:32:16;;;;;;;10.70;3.65;;;17.90;99.90;;;;;;5091331;28;20531;-75
2021/06/22 12:34:42;;;;;;;10.23;3.67;;;18.00;99.90;;;;;;5083579;28;20065;-75
2021/06/22 12:37:19;;;;;;;11.20;4.75;;;18.10;99.90;;;;;;5094706;28;20032;-75
2021/06/22 12:39:44;;;;;;;12.73;3.88;;;18.30;99.90;;;;;;5095293;28;20028;-76
2021/06/22 12:42:19;;;;;;;10.60;3.47;;;18.40;99.90;;;;;;5107356;28;20028;-76
2021/06/22 12:44:45;;;;;;;13.98;4.20;;;18.70;99.90;;;;;;5100429;28;20043;-77
2021/06/22 12:47:10;;;;;;;20.65;5.88;;;18.70;99.90;;;;;;5093908;28;20028;-76